Time;durP1;ratioP1;P1;durP2;ratioP2;P2;SDS_P1;SDS_P2;PMS_P1;PMS_P2;Temp;Humidity;BMP_temperature;BMP_pressure;BME280_temperature;BME280_humidity;BME280_pressure;Samples;Min_cycle;Max_cycle;Signal;HPM_P1;HPM_P2
2022/12/13 00:01:44;;;;;;;7.70;7.10;;;;;;;21.34;35.42;94444.78;6292443;27;104310;-63
2022/12/13 00:04:47;;;;;;;7.53;7.03;;;;;;;21.34;35.53;94450.09;6282667;27;105682;-63
2022/12/13 00:07:51;;;;;;;6.67;6.17;;;;;;;21.34;35.35;94449.28;6293276;27;103837;-63
2022/12/13 00:11:00;;;;;;;7.27;6.77;;;;;;;21.34;35.17;94441.31;6293421;27;103282;-63
2022/12/13 00:14:03;;;;;;;6.80;6.30;;;;;;;21.33;35.60;94451.19;6287974;27;103541;-62
2022/12/13 00:17:06;;;;;;;6.40;5.90;;;;;;;21.33;35.37;94455.72;6285276;27;104630;-62
2022/12/13 00:20:10;;;;;;;6.40;5.90;;;;;;;21.33;35.36;94456.50;6289033;27;103170;-61
2022/12/13 00:23:14;;;;;;;7.13;6.60;;;;;;;21.29;35.11;94455.56;6288670;27;103528;-62
2022/12/13 00:26:19;;;;;;;6.37;5.90;;;;;;;21.30;35.62;94459.78;6277524;27;103658;-63
2022/12/13 00:29:22;;;;;;;6.43;5.93;;;;;;;21.32;35.04;94462.91;6288063;27;104093;-63
2022/12/13 00:32:25;;;;;;;6.20;5.70;;;;;;;21.32;35.07;94465.56;6287956;27;102685;-63
2022/12/13 00:35:28;;;;;;;6.30;5.80;;;;;;;21.32;34.83;94459.47;6287637;27;102978;-63
2022/12/13 00:38:33;;;;;;;5.90;5.43;;;;;;;21.32;35.35;94462.91;6278247;27;104463;-63
2022/12/13 00:41:36;;;;;;;5.40;5.00;;;;;;;21.31;34.93;94464.00;6287412;27;104731;-63
2022/12/13 00:44:39;;;;;;;5.60;5.20;;;;;;;21.32;35.16;94459.47;6286125;27;103224;-62
2022/12/13 00:47:42;;;;;;;6.30;5.80;;;;;;;21.30;34.78;94465.13;6287399;27;102959;-63
2022/12/13 00:50:46;;;;;;;5.57;5.17;;;;;;;21.29;35.17;94463.56;6277710;27;103810;-63
2022/12/13 00:53:50;;;;;;;5.30;4.90;;;;;;;21.30;34.80;94469.66;6288261;27;103361;-62
2022/12/13 00:56:53;;;;;;;5.70;5.30;;;;;;;21.30;34.93;94465.13;6287189;27;104185;-62
2022/12/13 00:59:58;;;;;;;5.80;5.40;;;;;;;21.30;34.87;94464.34;6283235;27;104988;-62
2022/12/13 01:03:19;;;;;;;5.07;4.67;;;;;;;21.30;35.02;94467.78;6280486;27;103926;-61
2022/12/13 01:06:26;;;;;;;5.40;5.00;;;;;;;21.29;34.98;94474.19;6275011;27;104068;-60
2022/12/13 01:09:31;;;;;;;5.10;4.70;;;;;;;21.30;35.02;94472.31;6287727;27;102823;-61
2022/12/13 01:12:34;;;;;;;5.43;5.03;;;;;;;21.29;34.74;94465.44;6276495;27;103039;-63
2022/12/13 01:15:40;;;;;;;5.70;5.27;;;;;;;21.21;34.70;94472.34;6287569;27;103198;-63
2022/12/13 01:18:44;;;;;;;6.63;6.10;;;;;;;21.14;35.03;94469.34;6286681;27;103049;-62
2022/12/13 01:21:47;;;;;;;6.97;6.37;;;;;;;21.14;35.03;94482.66;6288133;27;104150;-63
2022/12/13 01:24:51;;;;;;;5.63;5.17;;;;;;;21.13;35.03;94478.44;6275400;27;103520;-63
2022/12/13 01:27:54;;;;;;;6.80;6.27;;;;;;;21.13;34.53;94483.75;6285816;27;104447;-62
2022/12/13 01:31:00;;;;;;;6.70;6.10;;;;;;;21.10;34.85;94479.06;6287343;27;104307;-62
2022/12/13 01:34:11;;;;;;;6.73;6.13;;;;;;;21.10;34.86;94481.72;6283195;27;104197;-61
2022/12/13 01:37:16;;;;;;;6.50;6.00;;;;;;;21.08;34.88;94481.25;6281502;27;103077;-61
2022/12/13 01:40:21;;;;;;;6.00;5.37;;;;;;;21.08;34.74;94478.59;6286723;27;104191;-61
2022/12/13 01:43:49;;;;;;;6.40;5.90;;;;;;;21.07;35.01;94471.69;6283922;27;104210;-62
2022/12/13 01:46:52;;;;;;;6.70;6.00;;;;;;;21.07;34.53;94477.81;6274939;27;104071;-62
2022/12/13 01:49:58;;;;;;;6.13;5.40;;;;;;;21.08;35.12;94474.06;6286579;27;103091;-62
2022/12/13 01:53:01;;;;;;;6.20;5.70;;;;;;;21.08;34.69;94475.94;6285983;27;103017;-62
2022/12/13 01:56:11;;;;;;;5.83;5.33;;;;;;;21.08;34.54;94467.94;6285628;27;103169;-62
2022/12/13 01:59:17;;;;;;;5.63;5.13;;;;;;;21.09;34.88;94474.84;6258628;27;103246;-62
2022/12/13 02:02:22;;;;;;;5.77;5.27;;;;;;;21.08;34.43;94476.72;6286392;27;103287;-63
2022/12/13 02:05:30;;;;;;;5.90;5.50;;;;;;;21.09;34.65;94486.25;6284619;27;103146;-63
2022/12/13 02:08:34;;;;;;;5.90;5.50;;;;;;;21.09;34.52;94485.47;6277823;27;103426;-63
2022/12/13 02:11:42;;;;;;;5.60;4.93;;;;;;;21.07;34.39;94475.16;6277788;27;103098;-63
2022/12/13 02:14:45;;;;;;;5.50;5.10;;;;;;;21.06;34.21;94480.78;6285810;27;103035;-62
2022/12/13 02:18:14;;;;;;;5.83;5.33;;;;;;;21.05;34.35;94474.69;6284713;27;103244;-63
2022/12/13 02:21:26;;;;;;;5.40;5.00;;;;;;;21.04;34.32;94467.75;6274648;27;103202;-62
2022/12/13 02:25:02;;;;;;;5.67;5.17;;;;;;;21.03;34.48;94463.53;6285026;27;103677;-63
2022/12/13 02:28:22;;;;;;;5.33;4.93;;;;;;;21.03;34.18;94468.88;6285441;27;103029;-64
2022/12/13 02:31:42;;;;;;;5.37;4.97;;;;;;;21.02;34.33;94477.94;6279515;27;104392;-62
2022/12/13 02:34:50;;;;;;;5.00;4.60;;;;;;;21.01;34.47;94473.72;6280050;27;102904;-63
2022/12/13 02:38:00;;;;;;;5.53;5.13;;;;;;;21.00;34.41;94480.09;6285236;27;104173;-62
2022/12/13 02:41:13;;;;;;;5.00;4.60;;;;;;;21.01;33.99;94484.34;6284445;27;103532;-61
2022/12/13 02:44:21;;;;;;;5.10;4.70;;;;;;;21.02;34.04;94490.47;6273836;27;104212;-61
2022/12/13 02:47:29;;;;;;;5.20;4.80;;;;;;;21.02;34.19;94493.13;6285488;27;103237;-61
2022/12/13 02:50:34;;;;;;;4.87;4.57;;;;;;;21.02;34.13;94490.47;6285488;27;103237;-62
2022/12/13 02:53:39;;;;;;;5.13;4.73;;;;;;;21.02;33.91;94488.59;6284935;27;104157;-61
2022/12/13 02:56:43;;;;;;;4.73;4.33;;;;;;;21.03;34.12;94484.81;6274497;27;103998;-63
2022/12/13 02:59:46;;;;;;;5.00;4.60;;;;;;;21.02;34.24;94487.78;6285235;27;103308;-60
2022/12/13 03:03:10;;;;;;;4.80;4.50;;;;;;;21.03;33.75;94494.69;6285314;27;104721;-62
2022/12/13 03:06:32;;;;;;;5.20;4.80;;;;;;;21.01;33.86;94494.22;6278418;27;103098;-63
2022/12/13 03:09:49;;;;;;;5.00;4.60;;;;;;;21.02;33.98;94501.09;6279480;27;104122;-63
2022/12/13 03:16:27;;;;;;;5.90;5.40;;;;;;;20.98;34.06;94489.50;6279321;27;103164;-62
2022/12/13 03:19:31;;;;;;;5.10;4.70;;;;;;;20.98;33.62;94494.81;6274266;27;104228;-61
2022/12/13 03:22:34;;;;;;;4.77;4.37;;;;;;;;;;6285011;27;104176;-61
2022/12/13 03:25:37;;;;;;;5.20;4.80;;;;;;;20.97;33.66;94490.59;6284315;27;103679;-61
2022/12/13 03:28:41;;;;;;;4.63;4.23;;;;;;;20.96;33.82;94495.13;6279623;27;103230;-62
2022/12/13 03:31:45;;;;;;;5.07;4.67;;;;;;;20.98;34.01;94494.81;6272985;27;103161;-62
2022/12/13 03:34:50;;;;;;;4.77;4.37;;;;;;;20.97;33.36;94493.25;6284999;27;103456;-62
2022/12/13 03:38:04;;;;;;;4.73;4.40;;;;;;;20.98;33.79;94489.50;6283183;27;102967;-62
2022/12/13 03:41:11;;;;;;;4.60;4.30;;;;;;;20.99;33.58;94501.69;6272504;27;104990;-63
2022/12/13 03:44:14;;;;;;;4.60;4.27;;;;;;;21.00;33.53;94493.41;6284887;27;102996;-62
2022/12/13 03:47:17;;;;;;;5.00;4.60;;;;;;;20.99;33.91;94494.50;6271060;27;104235;-62
2022/12/13 03:50:21;;;;;;;4.60;4.20;;;;;;;20.99;33.90;94501.69;6284914;27;104078;-61
2022/12/13 03:53:30;;;;;;;4.70;4.30;;;;;;;20.98;33.36;94505.44;6276962;27;103720;-61
2022/12/13 03:56:35;;;;;;;4.37;4.07;;;;;;;20.97;33.52;94510.00;6286558;27;103460;-61
2022/12/13 03:59:38;;;;;;;4.90;4.50;;;;;;;20.96;33.75;94518.28;6288973;27;103346;-61
2022/12/13 04:02:41;;;;;;;4.80;4.40;;;;;;;20.92;33.72;94513.59;6283166;27;103745;-61
2022/12/13 04:05:46;;;;;;;4.30;4.00;;;;;;;21.01;33.15;94515.50;6284176;27;104300;-62
2022/12/13 04:08:49;;;;;;;4.07;3.77;;;;;;;21.03;33.17;94516.75;6286743;27;103135;-62
2022/12/13 04:15:13;;;;;;;7.90;4.50;;;;;;;21.00;34.23;94537.84;6263656;27;103902;-60
2022/12/13 04:18:17;;;;;;;5.47;4.97;;;;;;;20.76;31.63;94535.59;6288578;27;103127;-61
2022/12/13 04:21:22;;;;;;;5.43;5.03;;;;;;;20.45;30.22;94539.09;6289289;27;102887;-61
2022/12/13 04:24:25;;;;;;;5.80;5.40;;;;;;;20.21;29.09;94550.09;6287922;27;103249;-61
2022/12/13 04:27:33;;;;;;;5.77;5.37;;;;;;;20.08;28.35;94556.25;6278090;27;103415;-61
2022/12/13 04:30:37;;;;;;;6.47;5.97;;;;;;;20.10;28.87;94567.34;6287890;27;103269;-61
2022/12/13 04:33:40;;;;;;;6.77;6.27;;;;;;;20.08;28.23;94564.22;6288987;27;104284;-60
2022/12/13 04:36:44;;;;;;;7.10;6.50;;;;;;;20.05;27.82;94575.47;6283967;27;104087;-62
2022/12/13 04:39:47;;;;;;;7.00;6.40;;;;;;;20.01;28.07;94585.13;6282252;27;104221;-62
2022/12/13 04:42:50;;;;;;;6.50;5.90;;;;;;;19.99;27.84;94571.34;6286578;27;104088;-62
2022/12/13 04:45:57;;;;;;;7.53;6.60;;;;;;;19.98;27.64;94581.19;6287835;27;104069;-62
2022/12/13 04:49:00;;;;;;;7.40;6.90;;;;;;;19.95;27.58;94581.00;6277763;27;104292;-62
2022/12/13 04:52:05;;;;;;;7.30;6.80;;;;;;;19.91;27.56;94594.13;6287009;27;103129;-61
2022/12/13 04:55:09;;;;;;;6.63;6.13;;;;;;;19.82;26.31;94587.94;6288089;27;103322;-61
2022/12/13 04:58:12;;;;;;;6.07;5.57;;;;;;;20.20;30.88;94591.03;6272765;27;103247;-62
2022/12/13 05:01:20;;;;;;;5.90;5.30;;;;;;;20.40;30.56;94592.41;6273452;27;104059;-62
2022/12/13 05:04:23;;;;;;;6.60;6.10;;;;;;;20.50;31.07;94594.81;6286725;27;103011;-61
2022/12/13 05:07:36;;;;;;;6.63;6.03;;;;;;;20.52;30.59;94579.34;6286600;27;103387;-62
2022/12/13 05:10:44;;;;;;;6.93;6.43;;;;;;;20.67;29.61;94596.75;6287711;27;103366;-61
2022/12/13 05:13:48;;;;;;;6.70;6.20;;;;;;;20.69;29.87;94597.22;6276078;27;105527;-62
2022/12/13 05:16:52;;;;;;;6.90;6.30;;;;;;;20.68;29.24;94597.53;6286768;27;103013;-60
2022/12/13 05:19:55;;;;;;;7.63;6.63;;;;;;;20.74;30.77;94602.41;6286687;27;103032;-65
2022/12/13 05:22:59;;;;;;;7.33;6.73;;;;;;;20.85;29.43;94598.38;6280514;27;104295;-66
2022/12/13 05:26:04;;;;;;;6.63;6.03;;;;;;;20.90;29.49;94600.88;6282700;27;103791;-65
2022/12/13 05:29:07;;;;;;;6.30;5.73;;;;;;;20.99;29.14;94605.44;6286216;27;103535;-66
2022/12/13 05:32:10;;;;;;;6.10;5.60;;;;;;;21.04;29.33;94605.31;6286244;27;106523;-67
2022/12/13 05:35:14;;;;;;;6.60;6.00;;;;;;;21.04;29.62;94610.63;6274649;27;103008;-66
2022/12/13 05:38:27;;;;;;;6.07;5.57;;;;;;;21.07;29.59;94612.69;6284694;27;104211;-66
2022/12/13 05:41:35;;;;;;;5.50;5.10;;;;;;;21.03;29.70;94625.81;6285525;27;103180;-66
2022/12/13 05:44:38;;;;;;;5.37;4.90;;;;;;;20.99;30.22;94630.16;6285588;27;102931;-67
2022/12/13 05:47:41;;;;;;;5.50;5.00;;;;;;;20.97;30.55;94629.69;6277775;27;104032;-67
2022/12/13 05:50:44;;;;;;;6.03;5.23;;;;;;;20.97;30.53;94631.56;6287528;27;104328;-66
2022/12/13 05:53:49;;;;;;;4.80;4.40;;;;;;;20.97;30.29;94635.00;6286976;27;103013;-66
2022/12/13 05:56:55;;;;;;;7.60;4.87;;;;;;;20.98;30.27;94649.09;6282716;27;104245;-67
2022/12/13 05:59:58;;;;;;;5.10;4.70;;;;;;;20.97;30.90;94640.31;6280885;27;103119;-67
2022/12/13 06:03:01;;;;;;;5.30;4.90;;;;;;;20.98;30.38;94641.09;6288071;27;103061;-66
2022/12/13 06:06:06;;;;;;;5.40;5.00;;;;;;;20.97;30.89;94653.63;6287361;27;103283;-66
2022/12/13 06:09:10;;;;;;;5.93;5.30;;;;;;;20.98;30.69;94649.09;6275186;27;103173;-67
2022/12/13 06:12:14;;;;;;;5.50;4.97;;;;;;;20.97;31.03;94648.31;6287606;27;103063;-66
2022/12/13 06:15:34;;;;;;;5.17;4.67;;;;;;;20.98;30.87;94655.19;6285354;27;103267;-67
2022/12/13 06:18:46;;;;;;;4.67;4.27;;;;;;;;;;6286622;27;102980;-66
2022/12/13 06:21:53;;;;;;;6.10;5.60;;;;;;;20.96;30.95;94648.63;6277613;27;103058;-67
2022/12/13 06:24:58;;;;;;;6.50;5.90;;;;;;;20.93;30.93;94648.13;6286452;27;103458;-67
2022/12/13 06:28:01;;;;;;;6.93;6.33;;;;;;;21.00;30.93;94652.22;6286157;27;103105;-66
2022/12/13 06:31:05;;;;;;;6.33;5.87;;;;;;;20.98;31.14;94644.53;6281979;27;103210;-65
2022/12/13 06:34:08;;;;;;;6.83;6.23;;;;;;;20.96;31.09;94637.97;6281413;27;103309;-68
2022/12/13 06:37:17;;;;;;;7.73;7.13;;;;;;;20.93;31.08;94647.34;6286338;27;103097;-67
2022/12/13 06:40:21;;;;;;;7.90;7.30;;;;;;;20.92;31.25;94653.78;6286258;27;103230;-67
2022/12/13 06:43:25;;;;;;;7.80;7.10;;;;;;;20.91;31.02;94658.31;6276470;27;103873;-66
2022/12/13 06:46:28;;;;;;;7.70;7.00;;;;;;;20.92;31.18;94664.41;6285746;27;103225;-67
2022/12/13 06:49:31;;;;;;;7.80;7.10;;;;;;;20.89;31.09;94673.78;6285967;27;103075;-66
2022/12/13 06:52:34;;;;;;;8.40;7.70;;;;;;;20.93;30.99;94663.31;6286055;27;103051;-67
2022/12/13 06:55:38;;;;;;;7.97;7.27;;;;;;;20.89;30.99;94662.38;6276163;27;103253;-67
2022/12/13 06:58:42;;;;;;;7.47;6.93;;;;;;;20.93;31.10;94664.09;6284891;27;103140;-67
2022/12/13 07:01:45;;;;;;;7.87;7.17;;;;;;;20.92;31.19;94667.84;6286535;27;103574;-67
2022/12/13 07:04:53;;;;;;;7.07;6.47;;;;;;;20.97;31.45;94668.81;6281627;27;103071;-65
2022/12/13 07:07:56;;;;;;;7.60;6.93;;;;;;;20.97;31.24;94663.47;6279431;27;103350;-66
2022/12/13 07:11:01;;;;;;;7.43;6.73;;;;;;;21.02;30.96;94677.44;6286683;27;103174;-67
2022/12/13 07:14:04;;;;;;;8.13;7.43;;;;;;;21.07;31.20;94684.53;6285927;27;104062;-67
2022/12/13 07:17:07;;;;;;;7.53;6.83;;;;;;;21.10;30.99;94681.25;6274698;27;102798;-67
2022/12/13 07:20:12;;;;;;;8.33;7.63;;;;;;;21.11;30.70;94690.78;6285394;27;104261;-67
2022/12/13 07:23:15;;;;;;;7.73;7.13;;;;;;;21.12;30.85;94695.81;6285872;27;104538;-66
2022/12/13 07:26:27;;;;;;;8.10;7.40;;;;;;;21.14;31.25;94692.84;6287627;27;103597;-67
2022/12/13 07:29:30;;;;;;;7.40;6.80;;;;;;;21.09;30.91;94709.72;6279263;27;103766;-67
2022/12/13 07:32:33;;;;;;;8.80;8.00;;;;;;;21.11;30.92;94706.75;6290396;27;103626;-67
2022/12/13 07:35:37;;;;;;;7.87;7.20;;;;;;;21.11;30.99;94701.44;6290208;27;103612;-66
2022/12/13 07:38:40;;;;;;;8.33;7.63;;;;;;;21.12;30.84;94708.31;6289964;27;103781;-67
2022/12/13 07:41:44;;;;;;;8.10;7.40;;;;;;;21.10;30.89;94703.31;6280045;27;104115;-66
2022/12/13 07:44:47;;;;;;;7.37;6.73;;;;;;;21.11;30.99;94704.09;6289963;27;103088;-67
2022/12/13 07:47:51;;;;;;;7.77;7.07;;;;;;;21.10;31.17;94705.19;6289042;27;103268;-66
2022/12/13 07:50:54;;;;;;;7.60;7.00;;;;;;;21.10;30.79;94703.31;6282373;27;103128;-66
2022/12/13 07:53:58;;;;;;;7.50;6.90;;;;;;;21.13;31.13;94709.88;6287555;27;103174;-66
2022/12/13 07:57:02;;;;;;;9.23;7.40;;;;;;;21.07;31.53;94705.81;6289136;27;103265;-67
2022/12/13 08:00:07;;;;;;;7.43;6.83;;;;;;;21.15;31.14;94719.13;6289309;27;102997;-66
2022/12/13 08:03:10;;;;;;;7.63;7.07;;;;;;;21.14;31.65;94725.53;6278720;27;103520;-66
2022/12/13 08:06:26;;;;;;;7.83;7.23;;;;;;;21.13;31.43;94717.88;6289467;27;103373;-67
2022/12/13 08:09:29;;;;;;;7.63;6.93;;;;;;;21.13;31.43;94720.53;6288998;27;103337;-65
2022/12/13 08:12:34;;;;;;;7.00;6.40;;;;;;;21.14;31.26;94722.09;6289131;27;103240;-65
2022/12/13 08:15:37;;;;;;;7.13;6.60;;;;;;;21.13;31.75;94728.50;6279175;27;105081;-66
2022/12/13 08:18:40;;;;;;;7.20;6.60;;;;;;;21.14;31.79;94727.44;6288386;27;103472;-64
2022/12/13 08:21:43;;;;;;;7.00;6.40;;;;;;;21.21;31.81;94730.44;6288607;27;102824;-64
2022/12/13 08:24:57;;;;;;;7.10;6.50;;;;;;;21.23;32.24;94727.47;6283372;27;104635;-66
2022/12/13 08:28:02;;;;;;;7.23;6.63;;;;;;;21.25;32.48;94738.59;6286846;27;103062;-65
2022/12/13 08:31:07;;;;;;;7.23;6.53;;;;;;;21.27;31.53;94742.50;6288727;27;103989;-65
2022/12/13 08:34:10;;;;;;;6.80;6.30;;;;;;;21.31;31.48;94738.13;6289248;27;102865;-66
2022/12/13 08:37:14;;;;;;;5.83;5.33;;;;;;;21.29;31.62;94718.25;6277690;27;103231;-66
2022/12/13 08:40:17;;;;;;;7.07;6.47;;;;;;;21.31;31.82;94721.38;6289239;27;105149;-66
2022/12/13 08:43:21;;;;;;;6.90;6.30;;;;;;;21.31;31.91;94718.72;6288222;27;103066;-66
2022/12/13 08:46:26;;;;;;;6.70;6.10;;;;;;;21.29;31.94;94712.94;6288969;27;103328;-66
2022/12/13 08:49:29;;;;;;;6.33;5.83;;;;;;;21.29;31.73;94708.38;6277600;27;103216;-66
2022/12/13 08:52:33;;;;;;;6.33;5.73;;;;;;;21.28;31.67;94714.03;6288424;27;103246;-65
2022/12/13 08:55:43;;;;;;;7.43;5.77;;;;;;;21.33;32.83;94697.91;6289151;27;103550;-67
2022/12/13 08:58:50;;;;;;;6.50;6.00;;;;;;;21.33;31.31;94698.69;6282588;27;103404;-66
2022/12/13 09:01:53;;;;;;;6.27;5.77;;;;;;;21.32;31.57;94691.78;6284388;27;106289;-66
2022/12/13 09:05:02;;;;;;;6.27;5.77;;;;;;;21.34;31.66;94697.63;6287916;27;103179;-65
2022/12/13 09:08:06;;;;;;;5.87;5.47;;;;;;;21.35;31.57;94698.41;6287659;27;104352;-65
2022/12/13 09:11:26;;;;;;;6.00;5.50;;;;;;;21.36;31.37;94702.63;6277967;27;104396;-67
2022/12/13 09:14:39;;;;;;;6.00;5.50;;;;;;;21.38;31.86;94698.56;6288642;27;102782;-65
2022/12/13 09:17:47;;;;;;;6.30;5.80;;;;;;;21.41;31.53;94692.63;6288438;27;103134;-65
2022/12/13 09:20:54;;;;;;;5.93;5.07;;;;;;;21.42;31.49;94686.19;6286881;27;104075;-67
2022/12/13 09:24:14;;;;;;;5.20;4.80;;;;;;;21.46;31.12;94681.03;6283003;27;105447;-66
2022/12/13 09:27:27;;;;;;;5.30;4.90;;;;;;;21.50;31.25;94684.63;6288204;27;103282;-65
2022/12/13 09:30:32;;;;;;;6.23;5.73;;;;;;;21.51;31.39;94671.03;6288545;27;103407;-65
2022/12/13 09:33:36;;;;;;;7.20;6.60;;;;;;;21.53;31.70;94662.75;6276652;27;104147;-65
2022/12/13 09:36:43;;;;;;;7.73;7.13;;;;;;;21.53;32.06;94665.41;6288155;27;103965;-66
2022/12/13 09:39:47;;;;;;;7.30;6.80;;;;;;;21.52;31.99;94666.50;6288044;27;103179;-67
2022/12/13 09:42:58;;;;;;;6.80;6.30;;;;;;;21.61;31.86;94671.81;6288118;27;104023;-67
2022/12/13 09:46:26;;;;;;;6.70;6.10;;;;;;;21.65;31.62;94665.56;6277466;27;104982;-65
2022/12/13 09:49:46;;;;;;;6.73;6.03;;;;;;;21.70;31.70;94656.66;6286034;27;103076;-66
2022/12/13 09:52:55;;;;;;;6.13;5.63;;;;;;;21.73;31.92;94662.13;6286863;27;103171;-66
2022/12/13 09:56:02;;;;;;;6.30;5.80;;;;;;;21.75;31.86;94657.28;6277758;27;104079;-66
2022/12/13 09:59:14;;;;;;;6.90;6.27;;;;;;;21.77;31.38;94654.28;6286860;27;104417;-66
2022/12/13 10:02:27;;;;;;;6.80;6.20;;;;;;;21.78;31.57;94646.00;6287024;27;103005;-66
2022/12/13 10:05:34;;;;;;;5.30;4.90;;;;;;;21.79;31.42;94652.09;6287396;27;103023;-65
2022/12/13 10:08:44;;;;;;;6.03;5.53;;;;;;;21.77;31.46;94644.41;6276493;27;103281;-67
2022/12/13 10:11:49;;;;;;;6.30;5.80;;;;;;;21.77;31.78;94643.63;6286720;27;103136;-66
2022/12/13 10:14:58;;;;;;;6.10;5.47;;;;;;;21.77;31.53;94640.97;6287622;27;106259;-66
2022/12/13 10:18:04;;;;;;;6.07;5.57;;;;;;;21.75;31.80;94637.84;6282364;27;103163;-65
2022/12/13 10:21:11;;;;;;;5.60;5.20;;;;;;;21.75;31.59;94638.63;6281606;27;104313;-66
2022/12/13 10:24:18;;;;;;;5.90;5.50;;;;;;;21.73;31.83;94632.06;6286009;27;103023;-66
2022/12/13 10:27:40;;;;;;;5.50;5.10;;;;;;;21.75;31.44;94616.53;6287257;27;103101;-66
2022/12/13 10:30:44;;;;;;;6.20;5.53;;;;;;;21.75;31.62;94619.19;6275725;27;103020;-66
2022/12/13 10:33:54;;;;;;;6.00;5.40;;;;;;;21.75;31.65;94613.88;6286724;27;103005;-66
2022/12/13 10:36:58;;;;;;;5.80;5.40;;;;;;;21.74;31.32;94610.44;6286601;27;103645;-66
2022/12/13 10:40:03;;;;;;;5.83;5.43;;;;;;;21.80;31.40;94595.06;6286433;27;104357;-62
2022/12/13 10:43:13;;;;;;;6.00;5.50;;;;;;;21.90;31.61;94594.78;6274655;27;102954;-60
2022/12/13 10:46:20;;;;;;;5.30;4.80;;;;;;;21.96;31.57;94598.84;6286831;27;103249;-61
2022/12/13 10:49:37;;;;;;;6.10;5.50;;;;;;;21.98;31.02;94591.31;6286075;27;103228;-61
2022/12/13 10:52:47;;;;;;;5.30;4.80;;;;;;;22.02;30.92;94588.81;6276491;27;103268;-63
2022/12/13 10:55:56;;;;;;;5.87;5.37;;;;;;;22.00;31.29;94591.00;6285427;27;103936;-62
2022/12/13 10:59:11;;;;;;;5.00;4.60;;;;;;;21.99;31.05;94581.44;6285873;27;102682;-61
2022/12/13 11:02:31;;;;;;;5.60;5.10;;;;;;;21.91;31.24;94575.03;6285502;27;102979;-62
2022/12/13 11:05:38;;;;;;;5.50;5.00;;;;;;;21.89;31.40;94566.59;6274963;27;104052;-62
2022/12/13 11:08:42;;;;;;;5.33;4.93;;;;;;;21.85;31.50;94576.31;6286352;27;103641;-62
2022/12/13 11:11:45;;;;;;;5.50;5.10;;;;;;;21.84;31.52;94579.25;6286036;27;103092;-62
2022/12/13 11:14:52;;;;;;;5.60;5.10;;;;;;;21.84;31.22;94569.41;6281202;27;102706;-63
2022/12/13 11:17:58;;;;;;;5.40;4.90;;;;;;;21.83;31.23;94567.81;6280863;27;104880;-61
2022/12/13 11:21:06;;;;;;;5.00;4.60;;;;;;;21.81;31.16;94554.78;6286667;27;103200;-61
2022/12/13 11:24:15;;;;;;;5.50;5.10;;;;;;;21.83;31.37;94545.75;6285439;27;103306;-60
2022/12/13 11:27:49;;;;;;;5.27;4.87;;;;;;;21.85;31.18;94556.88;6275402;27;104037;-61
2022/12/13 11:31:01;;;;;;;4.83;4.50;;;;;;;21.80;31.57;94547.91;6286034;27;103303;-61
2022/12/13 11:34:16;;;;;;;5.07;4.67;;;;;;;21.79;31.64;94558.88;6285255;27;103045;-61
2022/12/13 11:37:28;;;;;;;4.87;4.47;;;;;;;21.81;31.22;94548.69;6281927;27;103565;-62
2022/12/13 11:40:35;;;;;;;5.23;4.80;;;;;;;21.79;31.60;94562.31;6280193;27;104530;-62
2022/12/13 11:43:45;;;;;;;4.87;4.47;;;;;;;21.80;31.21;94573.75;6285824;27;103175;-62
2022/12/13 11:46:52;;;;;;;5.87;5.37;;;;;;;21.78;31.13;94575.97;6285211;27;103355;-62
2022/12/13 11:49:57;;;;;;;5.60;5.20;;;;;;;21.76;31.60;94565.63;6275218;27;104054;-62
2022/12/13 11:53:19;;;;;;;5.40;5.00;;;;;;;21.75;31.46;94560.63;6285536;27;103428;-62
2022/12/13 11:56:25;;;;;;;5.37;4.87;;;;;;;21.74;31.45;94557.16;6284874;27;103028;-62
2022/12/13 11:59:36;;;;;;;4.83;4.43;;;;;;;21.73;31.68;94557.50;6284384;27;103231;-62
2022/12/13 12:02:47;;;;;;;5.13;4.83;;;;;;;21.71;31.26;94549.81;6273558;27;103110;-61
2022/12/13 12:05:54;;;;;;;5.83;5.33;;;;;;;21.73;30.96;94552.16;6285557;27;104401;-62
2022/12/13 12:09:01;;;;;;;5.43;5.03;;;;;;;21.72;31.50;94553.25;6284852;27;103047;-61
2022/12/13 12:12:10;;;;;;;5.17;4.77;;;;;;;21.69;31.34;94552.00;6275914;27;104531;-61
2022/12/13 12:15:17;;;;;;;5.13;4.73;;;;;;;21.68;31.33;94545.13;6288660;27;104323;-63
2022/12/13 12:18:29;;;;;;;6.07;5.57;;;;;;;21.66;31.03;94547.28;6289335;27;103181;-61
2022/12/13 12:21:37;;;;;;;5.87;5.37;;;;;;;21.63;31.42;94542.59;6289499;27;103876;-61
2022/12/13 12:25:16;;;;;;;5.90;5.40;;;;;;;21.64;31.11;94540.72;6277944;27;104975;-61
2022/12/13 12:28:30;;;;;;;6.17;5.70;;;;;;;21.63;31.43;94539.94;6289344;27;103068;-61
2022/12/13 12:31:43;;;;;;;5.50;5.10;;;;;;;21.62;31.47;94532.28;6288396;27;103135;-61
2022/12/13 12:35:04;;;;;;;5.20;4.80;;;;;;;21.62;31.30;94542.91;6279588;27;103236;-61
2022/12/13 12:38:23;;;;;;;5.77;5.27;;;;;;;21.59;31.05;94546.22;6289029;27;104492;-61
2022/12/13 12:41:35;;;;;;;5.60;5.20;;;;;;;21.59;31.26;94549.66;6289367;27;103205;-62
2022/12/13 12:45:00;;;;;;;5.77;5.20;;;;;;;21.65;31.40;94548.38;6289226;27;103299;-61
2022/12/13 12:48:20;;;;;;;5.80;5.30;;;;;;;21.66;31.57;94552.63;6278025;27;103334;-62
2022/12/13 12:51:50;;;;;;;5.77;5.27;;;;;;;21.67;31.71;94554.19;6288629;27;102752;-62
2022/12/13 12:55:02;;;;;;;5.43;5.03;;;;;;;21.69;31.62;94554.69;6288831;27;104190;-61
2022/12/13 12:58:16;;;;;;;5.40;5.00;;;;;;;21.71;31.42;94575.66;6277800;27;103609;-62
2022/12/13 13:01:32;;;;;;;5.87;5.27;;;;;;;21.69;31.78;94570.66;6288531;27;104170;-61
2022/12/13 13:04:52;;;;;;;5.63;5.20;;;;;;;21.68;31.66;94574.41;6288120;27;104143;-62
2022/12/13 13:08:01;;;;;;;6.60;6.00;;;;;;;21.73;31.94;94576.13;6288054;27;103131;-62
2022/12/13 13:11:06;;;;;;;5.97;5.47;;;;;;;21.67;31.11;94588.00;6279740;27;103242;-62
2022/12/13 13:14:33;;;;;;;6.47;5.97;;;;;;;21.63;31.58;94589.75;6288446;27;103130;-60
2022/12/13 13:17:47;;;;;;;5.57;5.17;;;;;;;21.57;31.31;94583.81;6287937;27;102914;-60
2022/12/13 13:21:27;;;;;;;6.33;5.83;;;;;;;21.55;31.56;94593.19;6277321;27;103177;-61
2022/12/13 13:24:32;;;;;;;6.20;5.70;;;;;;;21.52;31.57;94600.72;6287615;27;103047;-60
2022/12/13 13:27:40;;;;;;;6.47;5.87;;;;;;;21.52;31.34;94607.94;6288409;27;104244;-62
2022/12/13 13:31:04;;;;;;;6.53;5.67;;;;;;;21.50;31.72;94602.88;6287929;27;103204;-61
2022/12/13 13:34:22;;;;;;;6.30;5.80;;;;;;;21.50;31.30;94608.22;6282330;27;102955;-62
2022/12/13 13:37:46;;;;;;;6.50;5.97;;;;;;;21.50;31.39;94629.50;6286872;27;103682;-61
2022/12/13 13:40:49;;;;;;;6.30;5.80;;;;;;;21.48;31.62;94634.38;6287974;27;104557;-61
2022/12/13 13:43:52;;;;;;;5.90;5.40;;;;;;;21.48;31.17;94636.25;6277807;27;104312;-61
2022/12/13 13:47:13;;;;;;;6.00;5.50;;;;;;;21.45;31.21;94627.00;6287220;27;104277;-61
2022/12/13 13:50:48;;;;;;;6.73;6.13;;;;;;;21.46;31.57;94617.94;6287665;27;103116;-63
2022/12/13 13:54:29;;;;;;;6.60;6.00;;;;;;;21.45;31.57;94605.72;6281676;27;103175;-61
2022/12/13 13:57:50;;;;;;;6.53;5.93;;;;;;;21.45;31.49;94605.72;6238149;27;103251;-61
2022/12/13 14:01:50;;;;;;;6.30;5.70;;;;;;;21.46;30.98;94604.63;6287158;27;103006;-61
2022/12/13 14:05:28;;;;;;;6.47;5.87;;;;;;;21.46;31.51;94604.63;6284423;27;103147;-61
2022/12/13 14:08:40;;;;;;;6.80;6.30;;;;;;;21.44;31.09;94596.16;6282453;27;104416;-61
2022/12/13 14:12:22;;;;;;;6.60;6.00;;;;;;;21.45;31.52;94589.75;6286793;27;104363;-62
2022/12/13 14:16:13;;;;;;;6.77;6.17;;;;;;;21.43;31.24;94581.28;6286832;27;103324;-61
2022/12/13 14:19:57;;;;;;;7.30;6.70;;;;;;;21.43;31.24;94567.19;6227349;28;103372;-62
2022/12/13 14:23:06;;;;;;;6.27;5.77;;;;;;;21.43;31.50;94581.28;6241136;27;103093;-61
2022/12/13 14:26:24;;;;;;;6.70;6.10;;;;;;;21.44;31.33;94596.16;6287501;27;102922;-62
2022/12/13 14:29:30;;;;;;;6.20;5.70;;;;;;;21.41;31.07;94602.13;6277050;27;104124;-62
2022/12/13 14:32:38;;;;;;;7.40;6.73;;;;;;;21.41;31.29;94594.13;6286991;27;103082;-61
2022/12/13 14:35:50;;;;;;;6.67;6.17;;;;;;;21.41;30.71;94593.34;6286185;27;103068;-62
2022/12/13 14:39:00;;;;;;;6.70;6.10;;;;;;;21.40;31.21;94578.47;6286014;27;104057;-64
2022/12/13 14:42:23;;;;;;;6.53;6.00;;;;;;;21.40;31.30;94549.97;6279975;27;102883;-61
2022/12/13 14:45:29;;;;;;;6.37;5.87;;;;;;;21.40;31.03;94560.63;6285877;27;102670;-61
2022/12/13 14:48:36;;;;;;;6.50;6.00;;;;;;;21.39;31.02;94572.38;6286824;27;103983;-61